createdAt,value
2023-04-19T00:01:09.412Z,9.65
2023-04-19T00:03:36.759Z,8.80
2023-04-19T00:06:03.585Z,8.25
2023-04-19T00:08:30.177Z,8.43
2023-04-19T00:10:56.879Z,8.43
2023-04-19T00:13:23.435Z,9.95
2023-04-19T00:15:50.074Z,8.95
2023-04-19T00:18:16.636Z,8.57
2023-04-19T00:20:43.616Z,8.68
2023-04-19T00:23:10.269Z,8.05
2023-04-19T00:25:36.844Z,9.20
2023-04-19T00:28:03.931Z,7.90
2023-04-19T00:30:30.549Z,8.38
2023-04-19T00:32:58.220Z,9.15
2023-04-19T00:35:24.841Z,8.50
2023-04-19T00:37:52.146Z,9.23
2023-04-19T00:40:18.722Z,9.50
2023-04-19T00:42:45.297Z,9.80
2023-04-19T00:45:12.352Z,11.05
2023-04-19T00:47:39.045Z,8.30
2023-04-19T00:50:06.335Z,8.93
2023-04-19T00:52:33.316Z,10.38
2023-04-19T00:55:00.324Z,8.98
2023-04-19T00:57:28.971Z,9.48
2023-04-19T00:59:55.637Z,9.80
2023-04-19T01:02:23.113Z,9.55
2023-04-19T01:04:49.978Z,9.18
2023-04-19T01:07:17.007Z,9.25
2023-04-19T01:09:44.069Z,9.82
2023-04-19T01:12:10.663Z,10.18
2023-04-19T01:14:37.243Z,9.80
2023-04-19T01:17:03.841Z,10.85
2023-04-19T01:19:30.529Z,10.50
2023-04-19T01:21:58.316Z,10.13
2023-04-19T01:24:25.809Z,9.40
2023-04-19T01:26:52.405Z,10.57
2023-04-19T01:29:22.084Z,9.75
2023-04-19T01:31:53.445Z,9.85
2023-04-19T01:34:20.404Z,10.82
2023-04-19T01:36:47.281Z,11.35
2023-04-19T01:39:13.859Z,12.38
2023-04-19T01:41:40.551Z,10.15
2023-04-19T01:44:07.134Z,10.50
2023-04-19T01:46:33.832Z,11.20
2023-04-19T01:49:00.709Z,12.88
2023-04-19T01:51:28.037Z,10.75
2023-04-19T01:53:54.732Z,10.48
2023-04-19T01:56:22.922Z,11.25
2023-04-19T01:58:49.509Z,11.50
2023-04-19T02:01:16.158Z,10.43
2023-04-19T02:03:42.914Z,11.55
2023-04-19T02:06:13.273Z,11.57
2023-04-19T02:08:40.648Z,10.80
2023-04-19T02:11:08.930Z,10.63
2023-04-19T02:13:35.506Z,11.60
2023-04-19T02:16:02.986Z,11.52
2023-04-19T02:18:29.904Z,10.07
2023-04-19T02:20:58.760Z,11.57
2023-04-19T02:23:25.425Z,11.02
2023-04-19T02:25:52.029Z,11.80
2023-04-19T02:28:18.606Z,10.88
2023-04-19T02:30:45.182Z,13.60
2023-04-19T02:33:12.483Z,11.63
2023-04-19T02:35:39.119Z,11.10
2023-04-19T02:38:05.715Z,11.60
2023-04-19T02:40:32.305Z,12.82
2023-04-19T02:42:58.991Z,11.30
2023-04-19T02:45:25.562Z,11.65
2023-04-19T02:47:54.732Z,11.32
2023-04-19T02:50:21.477Z,10.60
2023-04-19T02:52:50.292Z,11.63
2023-04-19T02:55:17.754Z,11.40
2023-04-19T02:57:46.469Z,12.77
2023-04-19T03:00:13.920Z,10.80
2023-04-19T03:02:46.502Z,11.30
2023-04-19T03:05:13.357Z,11.98
2023-04-19T03:07:40.012Z,12.82
2023-04-19T03:10:08.058Z,12.07
2023-04-19T03:12:34.691Z,11.38
2023-04-19T03:15:01.405Z,13.23
2023-04-19T03:17:28.156Z,11.48
2023-04-19T03:19:56.832Z,12.18
2023-04-19T03:22:24.084Z,12.63
2023-04-19T03:24:50.703Z,12.60
2023-04-19T03:27:22.065Z,11.35
2023-04-19T03:29:55.615Z,12.95
2023-04-19T03:32:22.957Z,11.48
2023-04-19T03:34:49.851Z,13.38
2023-04-19T03:37:16.540Z,12.57
2023-04-19T03:39:43.144Z,12.00
2023-04-19T03:42:14.782Z,12.00
2023-04-19T03:44:49.679Z,12.02
2023-04-19T03:47:18.018Z,12.40
2023-04-19T03:49:48.193Z,13.02
2023-04-19T03:52:15.564Z,13.02
2023-04-19T03:54:42.171Z,13.82
2023-04-19T03:57:18.226Z,11.45
2023-04-19T03:59:44.826Z,11.85
2023-04-19T04:02:11.860Z,11.50
2023-04-19T04:04:39.285Z,11.75
2023-04-19T04:07:08.010Z,12.43
2023-04-19T04:09:34.754Z,13.02
2023-04-19T04:12:01.985Z,12.48
2023-04-19T04:14:30.304Z,13.20
2023-04-19T04:16:57.257Z,13.80
2023-04-19T04:19:23.879Z,12.88
2023-04-19T04:21:50.625Z,11.70
2023-04-19T04:24:17.855Z,12.65
2023-04-19T04:27:12.193Z,12.35
2023-04-19T04:29:41.304Z,12.77
2023-04-19T04:32:10.528Z,12.48
2023-04-19T04:34:40.757Z,12.30
2023-04-19T04:37:11.718Z,12.02
2023-04-19T04:39:39.209Z,12.77
2023-04-19T04:42:08.728Z,12.90
2023-04-19T04:44:36.206Z,12.43
2023-04-19T04:47:03.186Z,12.02
2023-04-19T04:52:01.466Z,12.15
2023-04-19T04:54:31.673Z,13.30
2023-04-19T04:56:59.984Z,14.32
2023-04-19T04:59:27.297Z,14.32
2023-04-19T05:01:54.074Z,13.43
2023-04-19T05:04:20.986Z,14.48
2023-04-19T05:06:47.668Z,13.52
2023-04-19T05:09:20.580Z,12.95
2023-04-19T05:11:47.257Z,13.52
2023-04-19T05:14:14.096Z,12.70
2023-04-19T05:16:40.906Z,14.07
2023-04-19T05:19:07.556Z,13.48
2023-04-19T05:21:39.776Z,11.75
2023-04-19T05:24:09.953Z,14.23
2023-04-19T05:26:37.236Z,13.70
2023-04-19T05:29:05.432Z,13.45
2023-04-19T05:31:44.631Z,12.82
2023-04-19T05:34:19.756Z,14.63
2023-04-19T05:36:48.577Z,14.60
2023-04-19T05:39:15.450Z,12.55
2023-04-19T05:41:42.019Z,13.38
2023-04-19T05:44:08.732Z,12.43
2023-04-19T05:46:36.221Z,13.38
2023-04-19T05:49:03.052Z,13.77
2023-04-19T05:51:48.335Z,13.63
2023-04-19T05:54:25.649Z,12.25
2023-04-19T05:56:52.935Z,13.40
2023-04-19T05:59:19.526Z,13.85
2023-04-19T06:01:46.185Z,12.88
2023-04-19T06:04:13.211Z,14.18
2023-04-19T06:06:40.941Z,13.32
2023-04-19T06:09:07.538Z,14.50
2023-04-19T06:11:42.816Z,12.30
2023-04-19T06:14:16.826Z,14.63
2023-04-19T06:16:44.144Z,13.43
2023-04-19T06:19:10.698Z,14.18
2023-04-19T06:21:37.633Z,14.05
2023-04-19T06:24:05.592Z,13.38
2023-04-19T06:26:32.160Z,14.65
2023-04-19T06:28:58.730Z,14.60
2023-04-19T06:31:25.494Z,14.82
2023-04-19T06:33:52.112Z,14.57
2023-04-19T06:36:18.766Z,13.55
2023-04-19T06:38:46.272Z,14.02
2023-04-19T06:41:13.014Z,14.88
2023-04-19T06:43:40.812Z,13.40
2023-04-19T06:46:07.845Z,13.95
2023-04-19T06:48:35.150Z,14.70
2023-04-19T06:51:02.016Z,13.45
2023-04-19T06:53:28.594Z,14.43
2023-04-19T06:56:01.058Z,15.10
2023-04-19T06:58:28.328Z,16.30
2023-04-19T07:00:54.993Z,14.57
2023-04-19T07:03:22.247Z,14.80
2023-04-19T07:05:48.992Z,14.70
2023-04-19T07:08:16.160Z,14.75
2023-04-19T07:10:43.817Z,15.63
2023-04-19T07:13:13.598Z,13.93
2023-04-19T07:15:40.286Z,15.30
2023-04-19T07:18:07.164Z,15.77
2023-04-19T07:20:34.211Z,12.57
2023-04-19T07:23:00.889Z,14.35
2023-04-19T07:25:27.527Z,13.52
2023-04-19T07:27:55.005Z,15.40
2023-04-19T07:30:21.606Z,14.43
2023-04-19T07:32:48.505Z,15.20
2023-04-19T07:35:15.458Z,15.90
2023-04-19T07:37:42.656Z,15.45
2023-04-19T07:40:09.788Z,15.90
2023-04-19T07:42:36.382Z,14.40
2023-04-19T07:45:03.504Z,15.75
2023-04-19T07:47:31.244Z,15.40
2023-04-19T07:49:57.945Z,14.90
2023-04-19T07:52:24.564Z,14.20
2023-04-19T07:54:51.167Z,14.52
2023-04-19T07:57:18.026Z,14.57
2023-04-19T07:59:44.598Z,15.77
2023-04-19T08:02:11.315Z,15.10
2023-04-19T08:04:39.165Z,15.77
2023-04-19T08:07:06.866Z,15.35
2023-04-19T08:09:34.349Z,13.95
2023-04-19T08:12:01.468Z,13.88
2023-04-19T08:14:37.603Z,14.65
2023-04-19T08:19:34.207Z,15.02
2023-04-19T08:22:00.916Z,15.15
2023-04-19T08:24:27.490Z,14.95
2023-04-19T08:26:54.569Z,14.40
2023-04-19T08:29:22.165Z,16.20
2023-04-19T08:31:49.074Z,15.85
2023-04-19T08:34:15.764Z,17.70
2023-04-19T08:39:20.844Z,13.85
2023-04-19T08:41:59.415Z,15.77
2023-04-19T08:44:36.672Z,14.98
2023-04-19T08:47:06.387Z,14.52
2023-04-19T08:49:41.348Z,15.48
2023-04-19T08:52:10.259Z,14.40
2023-04-19T08:54:36.830Z,13.95
2023-04-19T08:57:03.510Z,13.80
2023-04-19T08:59:32.926Z,15.48
2023-04-19T09:02:02.847Z,15.60
2023-04-19T09:04:36.830Z,14.00
2023-04-19T09:07:04.264Z,14.88
2023-04-19T09:09:38.732Z,14.73
2023-04-19T09:12:20.384Z,14.52
2023-04-19T09:15:00.621Z,13.15
2023-04-19T09:17:28.273Z,13.57
2023-04-19T09:19:54.989Z,13.55
2023-04-19T09:22:21.645Z,14.90
2023-04-19T09:27:27.869Z,13.40
2023-04-19T09:29:59.914Z,12.45
2023-04-19T09:32:27.626Z,13.82
2023-04-19T09:34:59.126Z,12.90
2023-04-19T09:39:56.128Z,12.77
2023-04-19T09:42:42.114Z,14.02
2023-04-19T09:47:39.068Z,13.30
2023-04-19T09:50:21.291Z,13.13
2023-04-19T09:52:50.216Z,12.52
2023-04-19T09:55:26.780Z,12.65
2023-04-19T09:57:55.357Z,11.30
2023-04-19T10:00:22.715Z,12.27
2023-04-19T10:02:57.691Z,9.43
2023-04-19T10:05:25.783Z,11.18
2023-04-19T10:07:56.498Z,10.35
2023-04-19T10:10:36.299Z,10.57
2023-04-19T10:15:51.073Z,10.85
2023-04-19T10:18:19.456Z,11.40
2023-04-19T10:20:52.647Z,11.70
2023-04-19T10:23:20.508Z,11.88
2023-04-19T10:25:49.213Z,11.73
2023-04-19T10:28:16.833Z,11.02
2023-04-19T10:31:03.022Z,10.10
2023-04-19T10:33:40.455Z,11.27
2023-04-19T10:36:14.204Z,12.02
2023-04-19T10:38:52.248Z,10.93
2023-04-19T10:41:19.508Z,10.48
2023-04-19T10:43:55.196Z,11.75
2023-04-19T10:46:21.778Z,12.25
2023-04-19T10:48:54.314Z,11.38
2023-04-19T10:51:23.111Z,11.15
2023-04-19T10:54:00.498Z,12.35
2023-04-19T10:56:33.339Z,12.25
2023-04-19T10:59:05.220Z,11.60
2023-04-19T11:01:45.591Z,12.90
2023-04-19T11:04:13.213Z,11.45
2023-04-19T11:06:55.341Z,11.23
2023-04-19T11:09:26.676Z,10.63
2023-04-19T11:11:54.686Z,10.48
2023-04-19T11:14:21.654Z,11.18
2023-04-19T11:16:48.259Z,10.38
2023-04-19T11:19:16.200Z,12.18
2023-04-19T11:21:43.089Z,11.50
2023-04-19T11:24:10.797Z,13.13
2023-04-19T11:26:37.669Z,11.65
2023-04-19T11:29:06.150Z,12.07
2023-04-19T11:31:33.474Z,9.35
2023-04-19T11:34:00.840Z,11.48
2023-04-19T11:36:27.525Z,12.73
2023-04-19T11:38:54.401Z,11.18
2023-04-19T11:41:21.098Z,12.02
2023-04-19T11:43:48.417Z,13.13
2023-04-19T11:46:15.475Z,9.75
2023-04-19T11:48:53.077Z,10.52
2023-04-19T11:51:20.322Z,11.25
2023-04-19T11:53:47.194Z,10.38
2023-04-19T11:56:15.196Z,10.07
2023-04-19T11:58:45.483Z,11.38
2023-04-19T12:01:20.138Z,11.13
2023-04-19T12:03:54.325Z,10.10
2023-04-19T12:06:29.164Z,10.63
2023-04-19T12:08:56.421Z,10.38
2023-04-19T12:11:26.243Z,10.43
2023-04-19T12:14:16.678Z,10.60
2023-04-19T12:16:44.883Z,10.00
2023-04-19T12:19:17.428Z,9.38
2023-04-19T12:21:45.334Z,9.75
2023-04-19T12:24:14.508Z,10.70
2023-04-19T12:27:01.968Z,9.40
2023-04-19T12:29:29.834Z,9.15
2023-04-19T12:31:56.398Z,11.75
2023-04-19T12:34:23.030Z,9.93
2023-04-19T12:36:50.034Z,11.23
2023-04-19T12:39:16.958Z,10.32
2023-04-19T12:41:43.773Z,11.43
2023-04-19T12:44:10.497Z,12.70
2023-04-19T12:46:37.251Z,10.68
2023-04-19T12:49:03.914Z,10.88
2023-04-19T12:51:31.653Z,11.15
2023-04-19T12:53:58.295Z,10.35
2023-04-19T12:56:24.876Z,10.48
2023-04-19T12:58:51.672Z,11.75
2023-04-19T13:01:18.263Z,11.45
2023-04-19T13:03:46.015Z,10.00
2023-04-19T13:06:15.395Z,8.48
2023-04-19T13:08:47.149Z,8.63
2023-04-19T13:11:15.364Z,9.57
2023-04-19T13:13:41.961Z,7.75
2023-04-19T13:16:08.587Z,8.25
2023-04-19T13:18:35.220Z,9.20
2023-04-19T13:21:01.837Z,8.07
2023-04-19T13:23:28.616Z,9.77
2023-04-19T13:25:55.196Z,8.95
2023-04-19T13:28:21.862Z,9.23
2023-04-19T13:30:48.621Z,9.85
2023-04-19T13:33:15.544Z,9.95
2023-04-19T13:35:42.141Z,9.38
2023-04-19T13:38:08.715Z,9.05
2023-04-19T13:40:35.318Z,10.40
2023-04-19T13:43:02.043Z,10.43
2023-04-19T13:45:28.596Z,9.00
2023-04-19T13:47:55.254Z,9.32
2023-04-19T13:50:21.854Z,10.77
2023-04-19T13:52:48.418Z,11.60
2023-04-19T13:55:15.009Z,11.63
2023-04-19T13:57:41.677Z,11.63
2023-04-19T14:00:08.925Z,11.02
2023-04-19T14:02:35.871Z,11.77
2023-04-19T14:05:02.635Z,9.43
2023-04-19T14:07:29.233Z,11.35
2023-04-19T14:09:55.927Z,12.15
2023-04-19T14:12:22.518Z,11.90
2023-04-19T14:14:49.116Z,12.50
2023-04-19T14:17:15.696Z,10.98
2023-04-19T14:19:42.292Z,10.30
2023-04-19T14:22:08.874Z,10.27
2023-04-19T14:24:35.565Z,9.20
2023-04-19T14:27:10.906Z,10.50
2023-04-19T14:29:37.903Z,10.10
2023-04-19T14:32:20.922Z,10.95
2023-04-19T14:34:51.419Z,10.20
2023-04-19T14:37:18.706Z,9.38
2023-04-19T14:39:45.979Z,9.65
2023-04-19T14:42:12.537Z,9.77
2023-04-19T14:44:39.545Z,7.78
2023-04-19T14:47:07.536Z,7.30
2023-04-19T14:49:34.120Z,7.68
2023-04-19T14:52:00.711Z,8.93
2023-04-19T14:54:27.384Z,9.95
2023-04-19T14:56:54.065Z,10.43
2023-04-19T14:59:20.639Z,9.18
2023-04-19T15:01:47.399Z,11.45
2023-04-19T15:04:14.417Z,11.07
2023-04-19T15:06:41.419Z,11.20
2023-04-19T15:09:07.988Z,10.10
2023-04-19T15:11:34.531Z,12.05
2023-04-19T15:14:01.229Z,10.95
2023-04-19T15:16:28.208Z,12.05
2023-04-19T15:18:55.157Z,12.65
2023-04-19T15:21:24.330Z,11.98
2023-04-19T15:23:51.293Z,11.05
2023-04-19T15:26:17.866Z,11.93
2023-04-19T15:28:44.448Z,12.23
2023-04-19T15:31:11.057Z,11.63
2023-04-19T15:33:37.873Z,10.77
2023-04-19T15:36:04.839Z,10.38
2023-04-19T15:38:32.286Z,10.63
2023-04-19T15:40:59.633Z,9.07
2023-04-19T15:43:26.469Z,10.85
2023-04-19T15:45:53.166Z,11.77
2023-04-19T15:48:21.777Z,11.75
2023-04-19T15:50:48.412Z,10.15
2023-04-19T15:53:15.327Z,9.25
2023-04-19T15:55:41.954Z,11.18
2023-04-19T15:58:08.540Z,10.15
2023-04-19T16:00:35.123Z,10.68
2023-04-19T16:03:02.010Z,9.20
2023-04-19T16:05:29.141Z,10.02
2023-04-19T16:08:06.670Z,9.40
2023-04-19T16:10:33.298Z,9.95
2023-04-19T16:13:00.479Z,11.68
2023-04-19T16:15:28.298Z,12.45
2023-04-19T16:17:55.552Z,11.68
2023-04-19T16:20:22.462Z,10.75
2023-04-19T16:22:49.259Z,11.68
2023-04-19T16:25:17.178Z,12.00
2023-04-19T16:27:45.593Z,11.77
2023-04-19T16:30:13.716Z,10.73
2023-04-19T16:32:41.222Z,12.25
2023-04-19T16:35:08.146Z,10.77
2023-04-19T16:37:35.306Z,9.80
2023-04-19T16:40:08.164Z,11.70
2023-04-19T16:42:36.247Z,10.82
2023-04-19T16:45:03.641Z,12.63
2023-04-19T16:47:30.934Z,13.05
2023-04-19T16:49:58.194Z,10.27
2023-04-19T16:52:26.148Z,12.02
2023-04-19T16:54:52.788Z,13.00
2023-04-19T16:57:20.215Z,9.75
2023-04-19T16:59:46.935Z,10.45
2023-04-19T17:02:13.853Z,12.35
2023-04-19T17:04:41.054Z,11.68
2023-04-19T17:07:08.706Z,9.70
2023-04-19T17:09:36.250Z,10.38
2023-04-19T17:12:03.191Z,12.20
2023-04-19T17:14:29.818Z,13.00
2023-04-19T17:16:56.631Z,10.48
2023-04-19T17:19:23.210Z,11.23
2023-04-19T17:21:49.776Z,10.07
2023-04-19T17:24:16.458Z,10.85
2023-04-19T17:26:43.019Z,10.68
2023-04-19T17:29:09.584Z,12.77
2023-04-19T17:31:36.685Z,14.68
2023-04-19T17:34:03.333Z,13.40
2023-04-19T17:36:29.945Z,12.68
2023-04-19T17:38:56.604Z,15.00
2023-04-19T17:41:23.252Z,12.38
2023-04-19T17:43:49.835Z,13.63
2023-04-19T17:46:18.948Z,12.75
2023-04-19T17:48:46.411Z,13.55
2023-04-19T17:51:13.007Z,14.82
2023-04-19T17:53:39.569Z,13.70
2023-04-19T17:56:06.218Z,10.88
2023-04-19T17:58:32.856Z,14.07
2023-04-19T18:01:00.585Z,16.35
2023-04-19T18:03:27.336Z,11.93
2023-04-19T18:05:54.087Z,12.23
2023-04-19T18:08:20.801Z,10.65
2023-04-19T18:10:47.382Z,11.32
2023-04-19T18:13:13.964Z,12.85
2023-04-19T18:15:40.558Z,12.50
2023-04-19T18:18:07.163Z,13.93
2023-04-19T18:20:33.845Z,14.45
2023-04-19T18:23:01.078Z,11.70
2023-04-19T18:25:30.740Z,12.20
2023-04-19T18:27:57.404Z,12.38
2023-04-19T18:30:24.018Z,12.95
2023-04-19T18:32:50.672Z,13.85
2023-04-19T18:35:17.324Z,13.43
2023-04-19T18:37:43.936Z,11.00
2023-04-19T18:40:10.959Z,11.95
2023-04-19T18:42:37.535Z,11.85
2023-04-19T18:45:04.476Z,11.13
2023-04-19T18:47:31.263Z,11.27
2023-04-19T18:50:05.079Z,10.57
2023-04-19T18:52:34.801Z,11.35
2023-04-19T18:55:01.454Z,10.70
2023-04-19T18:57:28.265Z,10.45
2023-04-19T18:59:56.106Z,11.80
2023-04-19T19:02:22.747Z,10.65
2023-04-19T19:04:57.090Z,12.30
2023-04-19T19:07:36.314Z,11.00
2023-04-19T19:10:16.958Z,10.38
2023-04-19T19:12:45.661Z,11.40
2023-04-19T19:15:13.020Z,12.70
2023-04-19T19:17:39.762Z,12.38
2023-04-19T19:20:07.064Z,14.30
2023-04-19T19:22:34.900Z,12.23
2023-04-19T19:25:01.761Z,12.50
2023-04-19T19:27:28.414Z,10.82
2023-04-19T19:29:55.287Z,12.05
2023-04-19T19:32:22.008Z,11.95
2023-04-19T19:37:19.142Z,15.50
2023-04-19T19:39:46.681Z,16.67
2023-04-19T19:42:15.851Z,13.85
2023-04-19T19:44:42.462Z,13.25
2023-04-19T19:47:10.645Z,15.15
2023-04-19T19:52:07.573Z,13.32
2023-04-19T19:54:34.313Z,12.82
2023-04-19T19:59:34.480Z,12.50
2023-04-19T20:02:02.193Z,12.67
2023-04-19T20:04:29.183Z,11.43
2023-04-19T20:09:28.114Z,12.57
2023-04-19T20:11:54.709Z,13.57
2023-04-19T20:14:24.405Z,12.40
2023-04-19T20:16:52.049Z,11.55
2023-04-19T20:19:19.481Z,14.18
2023-04-19T20:21:47.058Z,14.32
2023-04-19T20:24:13.654Z,13.55
2023-04-19T20:26:40.512Z,13.43
2023-04-19T20:29:07.764Z,13.95
2023-04-19T20:31:34.365Z,11.55
2023-04-19T20:34:00.994Z,13.00
2023-04-19T20:36:28.528Z,15.32
2023-04-19T20:38:56.845Z,14.88
2023-04-19T20:41:23.452Z,14.18
2023-04-19T20:43:50.097Z,14.88
2023-04-19T20:46:16.843Z,11.75
2023-04-19T20:48:43.500Z,13.55
2023-04-19T20:51:12.526Z,14.73
2023-04-19T20:53:39.108Z,13.38
2023-04-19T20:56:05.678Z,13.05
2023-04-19T20:58:33.255Z,13.73
2023-04-19T21:00:59.859Z,13.55
2023-04-19T21:03:26.596Z,15.50
2023-04-19T21:05:53.634Z,13.45
2023-04-19T21:08:20.305Z,14.00
2023-04-19T21:10:47.064Z,14.52
2023-04-19T21:13:13.692Z,12.52
2023-04-19T21:15:40.359Z,12.95
2023-04-19T21:18:07.016Z,13.00
2023-04-19T21:20:33.913Z,12.27
2023-04-19T21:23:00.560Z,12.00
2023-04-19T21:25:27.497Z,11.68
2023-04-19T21:27:54.067Z,10.32
2023-04-19T21:30:23.040Z,11.80
2023-04-19T21:32:49.781Z,11.65
2023-04-19T21:35:16.357Z,13.23
2023-04-19T21:37:42.970Z,13.32
2023-04-19T21:40:09.790Z,14.52
2023-04-19T21:42:36.342Z,11.45
2023-04-19T21:45:03.099Z,9.10
2023-04-19T21:47:29.714Z,9.23
2023-04-19T21:49:56.390Z,9.75
2023-04-19T21:52:22.929Z,8.80
2023-04-19T21:54:49.722Z,6.95
2023-04-19T21:57:17.588Z,6.70
2023-04-19T21:59:44.263Z,6.55
2023-04-19T22:02:11.058Z,5.32
2023-04-19T22:04:39.631Z,6.90
2023-04-19T22:07:07.566Z,6.75
2023-04-19T22:09:34.299Z,6.85
2023-04-19T22:12:01.022Z,6.25
2023-04-19T22:14:28.261Z,6.22
2023-04-19T22:16:55.028Z,6.90
2023-04-19T22:19:23.262Z,5.97
2023-04-19T22:21:50.359Z,5.82
2023-04-19T22:24:17.092Z,7.00
2023-04-19T22:26:43.801Z,7.47
2023-04-19T22:29:10.399Z,7.65
2023-04-19T22:31:36.977Z,7.68
2023-04-19T22:34:03.546Z,7.03
2023-04-19T22:36:30.514Z,6.65
2023-04-19T22:38:57.406Z,6.63
2023-04-19T22:41:23.957Z,7.45
2023-04-19T22:43:50.592Z,7.70
2023-04-19T22:46:17.214Z,7.15
2023-04-19T22:48:43.804Z,7.47
2023-04-19T22:51:10.683Z,8.32
2023-04-19T22:53:37.769Z,8.57
2023-04-19T22:56:05.033Z,8.35
2023-04-19T22:58:31.889Z,8.00
2023-04-19T23:00:58.511Z,7.32
2023-04-19T23:03:25.529Z,7.35
2023-04-19T23:05:54.194Z,7.28
2023-04-19T23:08:20.942Z,8.15
2023-04-19T23:10:47.500Z,8.45
2023-04-19T23:13:15.687Z,7.00
2023-04-19T23:15:43.014Z,6.82
2023-04-19T23:18:09.819Z,7.30
2023-04-19T23:20:36.517Z,6.22
2023-04-19T23:23:03.113Z,6.72
2023-04-19T23:25:29.702Z,7.45
2023-04-19T23:27:56.286Z,6.97
2023-04-19T23:30:22.853Z,7.07
2023-04-19T23:32:49.434Z,6.88
2023-04-19T23:35:16.027Z,7.32
2023-04-19T23:37:42.610Z,6.78
2023-04-19T23:40:09.913Z,6.50
2023-04-19T23:42:38.204Z,6.72
2023-04-19T23:45:06.112Z,8.32
2023-04-19T23:47:33.565Z,6.50
2023-04-19T23:50:00.440Z,5.63
2023-04-19T23:52:27.483Z,6.15
2023-04-19T23:54:54.057Z,5.75
2023-04-19T23:57:20.615Z,8.38
2023-04-19T23:59:47.190Z,5.70
